Time;durP1;ratioP1;P1;durP2;ratioP2;P2;SDS_P1;SDS_P2;PMS_P1;PMS_P2;Temp;Humidity;BMP_temperature;BMP_pressure;BME280_temperature;BME280_humidity;BME280_pressure;Samples;Min_cycle;Max_cycle;Signal;HPM_P1;HPM_P2
2023/03/27 00:01:10;;;;;;;7.85;1.27;;;;;;;;;;4973290;28;92978;-78
2023/03/27 00:03:38;;;;;;;8.85;1.63;;;;;;;;;;4960726;28;91857;-77
2023/03/27 00:06:08;;;;;;;7.97;1.33;;;;;;;;;;4959265;28;92689;-78
2023/03/27 00:08:38;;;;;;;7.25;1.50;;;;;;;;;;4962974;28;99518;-78
2023/03/27 00:11:05;;;;;;;4.97;1.40;;;;;;;;;;4957888;28;94822;-77
2023/03/27 00:13:32;;;;;;;5.55;1.10;;;;;;;;;;4960314;28;92710;-78
2023/03/27 00:15:59;;;;;;;4.63;1.25;;;;;;;;;;4992817;28;92250;-78
2023/03/27 00:18:27;;;;;;;4.40;1.20;;;;;;;;;;4994974;28;94241;-78
2023/03/27 00:20:55;;;;;;;6.38;1.40;;;;;;;;;;4979465;28;93587;-78
2023/03/27 00:23:22;;;;;;;9.02;1.40;;;;;;;;;;4965927;28;92600;-78
2023/03/27 00:25:49;;;;;;;6.20;1.20;;;;;;;;;;5011021;28;92482;-79
2023/03/27 00:28:16;;;;;;;4.40;1.02;;;;;;;;;;4980362;28;92946;-77
2023/03/27 00:30:42;;;;;;;8.20;1.20;;;;;;;;;;4982536;28;92406;-78
2023/03/27 00:33:10;;;;;;;6.25;1.13;;;;;;;;;;4977750;28;95436;-77
2023/03/27 00:35:37;;;;;;;5.45;1.00;;;;;;;;;;4960484;28;95131;-77
2023/03/27 00:38:03;;;;;;;4.03;1.30;;;;;;;;;;4978425;28;94740;-77
2023/03/27 00:40:30;;;;;;;4.13;1.08;;;;;;;;;;4978168;28;92506;-77
2023/03/27 00:42:58;;;;;;;5.10;1.17;;;;;;;;;;4984052;28;92210;-77
2023/03/27 00:45:27;;;;;;;7.22;1.30;;;;;;;;;;4979038;28;92792;-76
2023/03/27 00:47:55;;;;;;;5.57;1.15;;;;;;;;;;4976518;28;95534;-77
2023/03/27 00:50:24;;;;;;;3.40;1.02;;;;;;;;;;4978967;28;92587;-76
2023/03/27 00:52:53;;;;;;;4.88;1.20;;;;;;;;;;4981203;28;94980;-77
2023/03/27 00:55:21;;;;;;;4.60;1.15;;;;;;;;;;4979359;28;92341;-77
2023/03/27 00:57:52;;;;;;;5.28;1.23;;;;;;;;;;4977161;28;94744;-77
2023/03/27 01:00:20;;;;;;;5.40;1.25;;;;;;;;;;4976719;28;95523;-76
2023/03/27 01:02:48;;;;;;;5.63;1.15;;;;;;;;;;4977840;28;92496;-78
2023/03/27 01:05:17;;;;;;;4.43;1.10;;;;;;;;;;4994097;28;95226;-77
2023/03/27 01:07:45;;;;;;;5.53;0.90;;;;;;;;;;4977403;28;95310;-78
2023/03/27 01:10:40;;;;;;;3.67;1.17;;;;;;;;;;4988541;28;92969;-78
2023/03/27 01:13:15;;;;;;;6.50;0.98;;;;;;;;;;4979406;28;92439;-77
2023/03/27 01:15:51;;;;;;;4.20;1.00;;;;;;;;;;4980464;28;95528;-77
2023/03/27 01:18:17;;;;;;;4.32;1.20;;;;;;;;;;4978059;28;97022;-78
2023/03/27 01:20:50;;;;;;;6.95;1.20;;;;;;;;;;4993795;28;93569;-78
2023/03/27 01:23:41;;;;;;;6.30;1.20;;;;;;;;;;4975168;28;92071;-78
2023/03/27 01:26:27;;;;;;;4.72;1.23;;;;;;;;;;4955207;28;98920;-78
2023/03/27 01:29:06;;;;;;;5.03;1.20;;;;;;;;;;4969839;28;94753;-78
2023/03/27 01:31:47;;;;;;;6.07;1.20;;;;;;;;;;4957546;28;92424;-77
2023/03/27 01:34:17;;;;;;;5.97;1.08;;;;;;;;;;4955279;28;96879;-78
2023/03/27 01:36:43;;;;;;;3.10;1.10;;;;;;;;;;4959409;28;95496;-78
2023/03/27 01:39:13;;;;;;;3.90;1.10;;;;;;;;;;4964248;28;92400;-78
2023/03/27 01:41:44;;;;;;;5.45;1.05;;;;;;;;;;4961200;28;95492;-78
2023/03/27 01:44:30;;;;;;;5.07;1.25;;;;;;;;;;4977696;28;91810;-78
2023/03/27 01:47:29;;;;;;;4.82;0.90;;;;;;;;;;4961658;28;92341;-78
2023/03/27 01:50:00;;;;;;;3.75;1.10;;;;;;;;;;4976935;28;94513;-78
2023/03/27 01:52:30;;;;;;;4.68;1.00;;;;;;;;;;4957355;28;94400;-77
2023/03/27 01:55:02;;;;;;;4.07;1.10;;;;;;;;;;4975756;28;94258;-79
2023/03/27 01:57:40;;;;;;;3.67;1.13;;;;;;;;;;4960935;28;95092;-79
2023/03/27 02:00:20;;;;;;;7.70;1.25;;;;;;;;;;4960350;28;93238;-79
2023/03/27 02:02:52;;;;;;;6.53;1.10;;;;;;;;;;4980667;28;92558;-78
2023/03/27 02:05:26;;;;;;;3.25;1.08;;;;;;;;;;4960896;28;92688;-78
2023/03/27 02:07:56;;;;;;;5.25;1.30;;;;;;;;;;4957701;28;92631;-79
2023/03/27 02:10:30;;;;;;;4.63;1.10;;;;;;;;;;4960688;28;94646;-78
2023/03/27 02:12:57;;;;;;;;;;;;;;;;;;4977969;28;92332;-78
2023/03/27 02:15:27;;;;;;;4.68;1.00;;;;;;;;;;4962644;28;121473;-78
2023/03/27 02:18:04;;;;;;;5.07;1.30;;;;;;;;;;4957945;28;97959;-78
2023/03/27 02:20:32;;;;;;;3.50;1.10;;;;;;;;;;4961862;28;92441;-77
2023/03/27 02:22:59;;;;;;;;;;;;;;;;;;4962732;28;94680;-77
2023/03/27 02:25:31;;;;;;;5.57;0.90;;;;;;;;;;4994182;28;107745;-77
2023/03/27 02:28:17;;;;;;;5.10;0.88;;;;;;;;;;4959784;28;94661;-78
2023/03/27 02:30:43;;;;;;;4.40;0.90;;;;;;;;;;4976029;28;95569;-78
2023/03/27 02:33:28;;;;;;;2.10;0.85;;;;;;;;;;4960745;28;92292;-78
2023/03/27 02:35:55;;;;;;;3.72;1.00;;;;;;;;;;4967311;28;92451;-77
2023/03/27 02:38:25;;;;;;;4.63;1.10;;;;;;;;;;4944231;28;92731;-78
2023/03/27 02:41:02;;;;;;;3.88;1.10;;;;;;;;;;4976703;28;92401;-78
2023/03/27 02:43:43;;;;;;;4.25;1.10;;;;;;;;;;4959632;28;94858;-78
2023/03/27 02:46:39;;;;;;;3.30;1.00;;;;;;;;;;4963153;28;98558;-78
2023/03/27 02:49:08;;;;;;;5.03;1.30;;;;;;;;;;4946474;28;95162;-77
2023/03/27 02:51:49;;;;;;;3.80;1.20;;;;;;;;;;4981102;28;92762;-77
2023/03/27 02:54:18;;;;;;;6.35;1.10;;;;;;;;;;4979509;28;94602;-77
2023/03/27 02:56:47;;;;;;;7.72;1.48;;;;;;;;;;4980028;28;92439;-78
2023/03/27 02:59:23;;;;;;;6.47;1.42;;;;;;;;;;4979482;28;94774;-78
2023/03/27 03:01:50;;;;;;;5.13;1.00;;;;;;;;;;4979288;28;91895;-78
2023/03/27 03:04:25;;;;;;;2.83;0.90;;;;;;;;;;4979263;28;92469;-77
2023/03/27 03:07:13;;;;;;;5.70;1.00;;;;;;;;;;4995707;28;95583;-78
2023/03/27 03:09:40;;;;;;;4.38;1.15;;;;;;;;;;4980746;28;94696;-78
2023/03/27 03:12:07;;;;;;;;;;;;;;;;;;4979259;28;94611;-78
2023/03/27 03:14:42;;;;;;;2.80;0.95;;;;;;;;;;4982402;28;92308;-78
2023/03/27 03:17:09;;;;;;;3.63;0.90;;;;;;;;;;4975421;28;93477;-78
2023/03/27 03:19:36;;;;;;;1.67;0.80;;;;;;;;;;4980535;28;92680;-78
2023/03/27 03:22:03;;;;;;;2.78;0.95;;;;;;;;;;4994533;28;92503;-78
2023/03/27 03:24:33;;;;;;;2.30;0.75;;;;;;;;;;4979145;28;93824;-77
2023/03/27 03:27:03;;;;;;;1.83;0.75;;;;;;;;;;4963318;28;94432;-75
2023/03/27 03:29:36;;;;;;;4.70;1.00;;;;;;;;;;4979144;28;92162;-77
2023/03/27 03:32:14;;;;;;;3.30;0.82;;;;;;;;;;4980010;28;99255;-76
2023/03/27 03:34:45;;;;;;;3.97;0.82;;;;;;;;;;4977404;28;95301;-77
2023/03/27 03:37:13;;;;;;;2.30;0.90;;;;;;;;;;4978725;28;97082;-78
2023/03/27 03:39:40;;;;;;;3.97;0.90;;;;;;;;;;4980381;28;93301;-77
2023/03/27 03:42:06;;;;;;;5.30;1.20;;;;;;;;;;4995040;28;92183;-77
2023/03/27 03:44:36;;;;;;;2.72;1.10;;;;;;;;;;4978849;28;92703;-77
2023/03/27 03:47:13;;;;;;;3.08;1.02;;;;;;;;;;4978632;28;92839;-77
2023/03/27 03:49:39;;;;;;;2.53;0.75;;;;;;;;;;4979130;28;92527;-78
2023/03/27 03:52:07;;;;;;;3.15;0.95;;;;;;;;;;4978737;28;94363;-78
2023/03/27 03:54:33;;;;;;;3.25;0.93;;;;;;;;;;4981671;28;94994;-78
2023/03/27 03:56:59;;;;;;;5.53;0.90;;;;;;;;;;4978937;28;95056;-78
2023/03/27 03:59:27;;;;;;;3.67;0.70;;;;;;;;;;4992720;28;97804;-78
2023/03/27 04:02:27;;;;;;;2.83;1.00;;;;;;;;;;4978218;28;93558;-78
2023/03/27 04:04:58;;;;;;;3.47;1.00;;;;;;;;;;4995191;28;95116;-78
2023/03/27 04:07:30;;;;;;;3.75;0.93;;;;;;;;;;4978598;28;93063;-78
2023/03/27 04:10:13;;;;;;;2.10;0.73;;;;;;;;;;4965361;28;92398;-77
2023/03/27 04:12:39;;;;;;;1.35;0.80;;;;;;;;;;5011675;28;94449;-77
2023/03/27 04:15:14;;;;;;;3.15;0.82;;;;;;;;;;4988732;28;95427;-78
2023/03/27 04:18:03;;;;;;;2.40;0.80;;;;;;;;;;4992908;28;91508;-78
2023/03/27 04:20:33;;;;;;;2.65;0.82;;;;;;;;;;4994746;28;93177;-77
2023/03/27 04:23:01;;;;;;;3.45;0.90;;;;;;;;;;4978603;28;92350;-78
2023/03/27 04:25:33;;;;;;;3.45;0.82;;;;;;;;;;4993306;28;95163;-77
2023/03/27 04:28:01;;;;;;;2.15;0.90;;;;;;;;;;4977531;28;94652;-77
2023/03/27 04:30:37;;;;;;;3.47;0.70;;;;;;;;;;4994779;28;92730;-77
2023/03/27 04:33:22;;;;;;;2.30;0.80;;;;;;;;;;4976152;28;92435;-77
2023/03/27 04:36:01;;;;;;;2.78;0.80;;;;;;;;;;4979119;28;92927;-77
2023/03/27 04:38:59;;;;;;;3.67;1.00;;;;;;;;;;5002878;28;92487;-76
2023/03/27 04:41:28;;;;;;;2.22;0.80;;;;;;;;;;4989325;28;92986;-76
2023/03/27 04:43:55;;;;;;;2.35;0.93;;;;;;;;;;4972938;28;92017;-76
2023/03/27 04:46:22;;;;;;;3.58;0.80;;;;;;;;;;5011246;28;94481;-75
2023/03/27 04:48:55;;;;;;;3.33;0.85;;;;;;;;;;4977613;28;94517;-76
2023/03/27 04:51:41;;;;;;;1.10;0.70;;;;;;;;;;4979054;28;94539;-77
2023/03/27 04:54:09;;;;;;;2.80;0.70;;;;;;;;;;4993725;28;95272;-78
2023/03/27 04:56:40;;;;;;;5.60;1.00;;;;;;;;;;4978050;28;95082;-78
2023/03/27 04:59:07;;;;;;;7.60;1.00;;;;;;;;;;5011267;28;92260;-76
2023/03/27 05:01:34;;;;;;;9.57;1.40;;;;;;;;;;4996524;28;93233;-77
2023/03/27 05:04:25;;;;;;;8.90;1.17;;;;;;;;;;5004515;28;93111;-75
2023/03/27 05:07:10;;;;;;;5.43;1.05;;;;;;;;;;4977446;28;94295;-76
2023/03/27 05:09:37;;;;;;;6.97;0.90;;;;;;;;;;4979302;28;92303;-77
2023/03/27 05:12:05;;;;;;;8.38;1.17;;;;;;;;;;4977191;28;92230;-76
2023/03/27 05:14:38;;;;;;;3.17;0.90;;;;;;;;;;4978260;28;93263;-77
2023/03/27 05:17:11;;;;;;;4.25;0.88;;;;;;;;;;4976523;28;96813;-77
2023/03/27 05:19:42;;;;;;;4.65;0.93;;;;;;;;;;4977622;28;92594;-77
2023/03/27 05:22:08;;;;;;;3.20;0.90;;;;;;;;;;4978349;28;92529;-78
2023/03/27 05:24:45;;;;;;;3.28;0.88;;;;;;;;;;4965393;28;93116;-77
2023/03/27 05:27:11;;;;;;;2.65;0.80;;;;;;;;;;4987303;28;92665;-76
2023/03/27 05:29:39;;;;;;;4.00;0.77;;;;;;;;;;4977805;28;95170;-76
2023/03/27 05:32:14;;;;;;;2.40;0.70;;;;;;;;;;4961411;28;92780;-76
2023/03/27 05:34:53;;;;;;;2.42;0.70;;;;;;;;;;4976227;28;95668;-77
2023/03/27 05:37:22;;;;;;;3.30;0.50;;;;;;;;;;4977115;28;93481;-76
2023/03/27 05:40:23;;;;;;;5.22;1.00;;;;;;;;;;4978838;28;92647;-76
2023/03/27 05:42:50;;;;;;;4.38;0.90;;;;;;;;;;4992167;28;96037;-76
2023/03/27 05:45:17;;;;;;;3.58;1.00;;;;;;;;;;4993470;28;94798;-79
2023/03/27 05:47:45;;;;;;;6.15;0.90;;;;;;;;;;4980720;28;92318;-76
2023/03/27 05:50:13;;;;;;;4.78;0.73;;;;;;;;;;4993390;28;99447;-78
2023/03/27 05:52:39;;;;;;;2.55;0.77;;;;;;;;;;4993406;28;93076;-76
2023/03/27 05:55:07;;;;;;;2.78;0.60;;;;;;;;;;5010017;28;94514;-76
2023/03/27 05:57:38;;;;;;;2.60;0.90;;;;;;;;;;5010260;28;92596;-76
2023/03/27 06:00:09;;;;;;;;;;;;;;;;;;5010763;28;93403;-78
2023/03/27 06:02:44;;;;;;;3.03;0.70;;;;;;;;;;5008831;28;92371;-77
2023/03/27 06:05:15;;;;;;;2.42;0.70;;;;;;;;;;4992405;28;95169;-78
2023/03/27 06:07:46;;;;;;;1.98;0.50;;;;;;;;;;4973990;28;94956;-79
2023/03/27 06:10:16;;;;;;;1.45;0.65;;;;;;;;;;4995538;28;96975;-78
2023/03/27 06:13:05;;;;;;;2.50;0.68;;;;;;;;;;4977549;28;92533;-78
2023/03/27 06:15:40;;;;;;;2.85;0.68;;;;;;;;;;4993280;28;94525;-77
2023/03/27 06:18:25;;;;;;;2.65;0.80;;;;;;;;;;4978114;28;97066;-78
2023/03/27 06:20:51;;;;;;;2.20;0.70;;;;;;;;;;4977323;28;92588;-77
2023/03/27 06:23:18;;;;;;;1.95;0.60;;;;;;;;;;4979980;28;94505;-77
2023/03/27 06:25:46;;;;;;;3.20;0.80;;;;;;;;;;4980389;28;94533;-78
2023/03/27 06:28:13;;;;;;;2.17;0.75;;;;;;;;;;4981616;28;92429;-78
2023/03/27 06:30:45;;;;;;;4.72;0.90;;;;;;;;;;5016040;28;95742;-78
2023/03/27 06:33:30;;;;;;;;;;;;;;;;;;4979634;28;95449;-77
2023/03/27 06:36:01;;;;;;;2.75;0.80;;;;;;;;;;5013854;28;95811;-77
2023/03/27 06:38:31;;;;;;;5.03;1.00;;;;;;;;;;5013268;28;92630;-77
2023/03/27 09:07:19;;;;;;;3.20;0.60;;;;;;;;;;4948152;28;96361;-79
2023/03/27 09:10:14;;;;;;;2.67;0.70;;;;;;;;;;4970720;28;95390;-79
2023/03/27 09:12:49;;;;;;;2.35;0.70;;;;;;;;;;4993043;28;92377;-79
2023/03/27 09:15:20;;;;;;;3.42;0.70;;;;;;;;;;4989226;28;95150;-79
2023/03/27 09:17:49;;;;;;;;;;;;;;;;;;4972882;28;94797;-79
2023/03/27 09:20:19;;;;;;;3.25;0.73;;;;;;;;;;4982140;28;92160;-79
2023/03/27 09:23:09;;;;;;;3.90;0.60;;;;;;;;;;4953427;28;95143;-79
2023/03/27 09:26:00;;;;;;;2.33;0.70;;;;;;;;;;4979010;28;93676;-79
2023/03/27 09:28:52;;;;;;;2.75;0.60;;;;;;;;;;4972449;28;92600;-79
2023/03/27 09:31:28;;;;;;;3.35;0.90;;;;;;;;;;5015039;28;95129;-79
2023/03/27 09:33:57;;;;;;;4.20;0.68;;;;;;;;;;4968660;28;92679;-79
2023/03/27 09:36:23;;;;;;;3.15;0.80;;;;;;;;;;4983616;28;94691;-79
2023/03/27 09:38:52;;;;;;;2.45;0.55;;;;;;;;;;4960712;28;94733;-79
2023/03/27 09:41:24;;;;;;;2.00;0.60;;;;;;;;;;4981449;28;92492;-78
2023/03/27 09:43:50;;;;;;;1.05;0.60;;;;;;;;;;4965074;28;92969;-77
2023/03/27 09:46:18;;;;;;;2.38;0.70;;;;;;;;;;5019234;28;92400;-78
2023/03/27 09:49:08;;;;;;;4.60;0.70;;;;;;;;;;4959799;28;94823;-79
2023/03/27 09:51:40;;;;;;;3.40;0.93;;;;;;;;;;4997741;28;94913;-78
2023/03/27 09:54:15;;;;;;;5.63;0.80;;;;;;;;;;4978222;28;93163;-77
2023/03/27 09:56:45;;;;;;;2.42;0.50;;;;;;;;;;4976509;28;94445;-79
2023/03/27 09:59:26;;;;;;;1.83;0.70;;;;;;;;;;4974647;28;95725;-78
2023/03/27 10:02:08;;;;;;;2.15;0.77;;;;;;;;;;4974610;28;94759;-79
2023/03/27 10:04:35;;;;;;;1.65;0.60;;;;;;;;;;4978910;28;97571;-78
2023/03/27 10:07:04;;;;;;;2.92;0.57;;;;;;;;;;4989476;28;92477;-78
2023/03/27 10:10:14;;;;;;;3.15;0.70;;;;;;;;;;4986098;28;92619;-78
2023/03/27 10:13:00;;;;;;;2.50;0.70;;;;;;;;;;4970138;28;92457;-77
2023/03/27 10:15:35;;;;;;;1.38;0.50;;;;;;;;;;4979745;28;92608;-79
2023/03/27 10:18:06;;;;;;;2.13;0.70;;;;;;;;;;4974993;28;94629;-79
2023/03/27 10:20:33;;;;;;;1.92;0.57;;;;;;;;;;4989631;28;94629;-79
2023/03/27 10:23:01;;;;;;;2.42;0.55;;;;;;;;;;4975946;28;94036;-79
2023/03/27 10:25:33;;;;;;;1.92;0.60;;;;;;;;;;4978015;28;93032;-79
2023/03/27 10:28:22;;;;;;;1.35;0.60;;;;;;;;;;4960500;28;101876;-79
2023/03/27 10:31:23;;;;;;;2.17;0.73;;;;;;;;;;4962503;28;94167;-79
2023/03/27 10:34:02;;;;;;;1.23;0.60;;;;;;;;;;4992537;28;96232;-79
2023/03/27 10:37:20;;;;;;;1.98;0.60;;;;;;;;;;4937533;28;92688;-78
2023/03/27 10:39:55;;;;;;;1.63;0.60;;;;;;;;;;4944554;28;95047;-78
2023/03/27 10:42:35;;;;;;;2.28;0.60;;;;;;;;;;4972277;28;95213;-78
2023/03/27 10:45:02;;;;;;;1.83;0.55;;;;;;;;;;4968013;28;92641;-79
2023/03/27 10:47:30;;;;;;;1.45;0.45;;;;;;;;;;4965900;28;94749;-78
2023/03/27 10:49:56;;;;;;;2.03;0.70;;;;;;;;;;4981483;28;94932;-79
2023/03/27 10:52:38;;;;;;;1.92;0.60;;;;;;;;;;4962037;28;92288;-79
2023/03/27 10:55:22;;;;;;;2.40;0.80;;;;;;;;;;4991620;28;98604;-79
2023/03/27 10:57:52;;;;;;;2.00;0.70;;;;;;;;;;4959583;28;92322;-79
2023/03/27 11:00:31;;;;;;;1.38;0.63;;;;;;;;;;4990161;28;93944;-78
2023/03/27 11:03:03;;;;;;;1.63;0.68;;;;;;;;;;4976302;28;94578;-78
2023/03/27 11:05:33;;;;;;;1.45;0.47;;;;;;;;;;4974595;28;92364;-79
2023/03/27 11:08:07;;;;;;;1.35;0.60;;;;;;;;;;4976693;28;92635;-79
2023/03/27 11:10:36;;;;;;;1.13;0.60;;;;;;;;;;5005010;28;93714;-77
2023/03/27 11:13:04;;;;;;;1.60;0.70;;;;;;;;;;4975189;28;91666;-77
2023/03/27 11:15:37;;;;;;;2.08;0.80;;;;;;;;;;4958003;28;92884;-77
2023/03/27 11:18:19;;;;;;;1.75;0.80;;;;;;;;;;4966087;28;92430;-78
2023/03/27 11:21:04;;;;;;;4.13;1.00;;;;;;;;;;4975316;28;100169;-77
2023/03/27 11:23:37;;;;;;;2.30;0.60;;;;;;;;;;4978545;28;95636;-77
2023/03/27 11:26:19;;;;;;;2.15;0.82;;;;;;;;;;4972637;28;92454;-76
2023/03/27 11:29:00;;;;;;;1.05;0.63;;;;;;;;;;4976351;28;95079;-78
2023/03/27 11:31:48;;;;;;;2.83;0.80;;;;;;;;;;4990448;28;95509;-78
2023/03/27 11:34:31;;;;;;;1.88;0.50;;;;;;;;;;4989731;28;93490;-76
2023/03/27 11:37:39;;;;;;;3.03;0.75;;;;;;;;;;4960561;28;93625;-77
2023/03/27 11:40:12;;;;;;;1.70;0.80;;;;;;;;;;4965812;28;92484;-79
2023/03/27 11:42:41;;;;;;;2.80;1.00;;;;;;;;;;4978257;28;94896;-78
2023/03/27 11:45:11;;;;;;;1.75;1.00;;;;;;;;;;5002868;28;94678;-78
2023/03/27 11:48:05;;;;;;;2.08;0.80;;;;;;;;;;4965768;28;95165;-77
2023/03/27 11:50:48;;;;;;;2.85;1.00;;;;;;;;;;4972611;28;98771;-77
2023/03/27 11:53:33;;;;;;;2.80;0.90;;;;;;;;;;4961705;28;94041;-79
2023/03/27 11:56:27;;;;;;;4.20;0.80;;;;;;;;;;4972770;28;92330;-79
2023/03/27 11:59:21;;;;;;;4.78;1.10;;;;;;;;;;4975706;28;92652;-79
2023/03/27 12:02:01;;;;;;;2.72;1.00;;;;;;;;;;5001736;28;95039;-78
2023/03/27 12:04:35;;;;;;;3.53;1.00;;;;;;;;;;4974852;28;94539;-79
2023/03/27 12:07:21;;;;;;;3.33;0.90;;;;;;;;;;4976556;28;94482;-78
2023/03/27 12:10:16;;;;;;;1.92;1.00;;;;;;;;;;4999811;28;92605;-78
2023/03/27 12:13:17;;;;;;;2.42;0.75;;;;;;;;;;4966870;28;94619;-78
2023/03/27 12:16:03;;;;;;;2.97;0.90;;;;;;;;;;4978138;28;97570;-77
2023/03/27 12:18:59;;;;;;;3.25;0.88;;;;;;;;;;4946653;28;92918;-77
2023/03/27 12:21:36;;;;;;;2.35;0.80;;;;;;;;;;4991307;28;94820;-77
2023/03/27 12:24:31;;;;;;;2.35;0.80;;;;;;;;;;4973329;28;98124;-77
2023/03/27 12:27:43;;;;;;;2.80;0.75;;;;;;;;;;4935817;28;93000;-77
2023/03/27 12:30:46;;;;;;;;;;;;;;;;;;4918687;28;97138;-76
2023/03/27 12:33:25;;;;;;;3.70;1.00;;;;;;;;;;4990876;28;92578;-78
2023/03/27 12:35:53;;;;;;;3.40;0.98;;;;;;;;;;4961228;28;93964;-77
2023/03/27 12:38:25;;;;;;;5.25;1.13;;;;;;;;;;4970843;28;92152;-77
2023/03/27 12:40:59;;;;;;;9.15;1.17;;;;;;;;;;5004547;28;92195;-77
2023/03/27 12:43:30;;;;;;;6.82;1.20;;;;;;;;;;4991604;28;94981;-76
2023/03/27 12:46:14;;;;;;;;;;;;;;;;;;4968818;28;99787;-77
2023/03/27 12:48:53;;;;;;;7.53;1.30;;;;;;;;;;4976701;28;111433;-76
2023/03/27 12:51:34;;;;;;;6.40;1.40;;;;;;;;;;4976524;28;95058;-78
2023/03/27 12:54:20;;;;;;;5.00;1.10;;;;;;;;;;4973248;28;94097;-77
2023/03/27 12:57:04;;;;;;;5.22;1.10;;;;;;;;;;4985808;28;94921;-79
2023/03/27 12:59:34;;;;;;;4.20;1.00;;;;;;;;;;4991210;28;95080;-78
2023/03/27 13:02:03;;;;;;;5.22;1.00;;;;;;;;;;4978047;28;91527;-79
2023/03/27 13:04:49;;;;;;;2.55;0.95;;;;;;;;;;4989841;28;94503;-79
2023/03/27 13:07:16;;;;;;;6.65;1.00;;;;;;;;;;4989457;28;94845;-78
2023/03/27 13:10:02;;;;;;;4.10;0.93;;;;;;;;;;4996015;28;94916;-79
2023/03/27 13:12:39;;;;;;;3.85;1.00;;;;;;;;;;5002323;28;95091;-79
2023/03/27 13:15:17;;;;;;;3.92;1.00;;;;;;;;;;4978553;28;92769;-78
2023/03/27 13:17:53;;;;;;;3.85;1.10;;;;;;;;;;4982540;28;93201;-79
2023/03/27 13:20:27;;;;;;;4.30;0.95;;;;;;;;;;4966395;28;94426;-81
2023/03/27 13:22:58;;;;;;;5.22;1.00;;;;;;;;;;4972961;28;93450;-78
2023/03/27 13:25:26;;;;;;;;;;;;;;;;;;4978702;28;93277;-77
2023/03/27 13:28:12;;;;;;;5.38;1.88;;;;;;;;;;4973122;28;94881;-79
2023/03/27 13:30:51;;;;;;;5.55;1.90;;;;;;;;;;4992978;28;92660;-79
2023/03/27 13:33:43;;;;;;;6.07;1.95;;;;;;;;;;4974508;28;92571;-79
2023/03/27 13:36:18;;;;;;;5.38;1.80;;;;;;;;;;4965601;28;99839;-80
2023/03/27 13:38:51;;;;;;;6.38;2.10;;;;;;;;;;4959752;28;93011;-80
2023/03/27 13:41:34;;;;;;;5.95;1.90;;;;;;;;;;4990225;28;94194;-78
2023/03/27 13:44:05;;;;;;;5.82;2.20;;;;;;;;;;4965486;28;92067;-78
2023/03/27 13:46:42;;;;;;;5.50;1.90;;;;;;;;;;4987561;28;95245;-79
2023/03/27 13:49:26;;;;;;;6.38;2.08;;;;;;;;;;4964833;28;92795;-80
2023/03/27 13:52:06;;;;;;;6.60;2.30;;;;;;;;;;4969495;28;93342;-79
2023/03/27 13:54:33;;;;;;;6.85;2.20;;;;;;;;;;4963989;28;94862;-78
2023/03/27 13:57:00;;;;;;;;;;;;;;;;;;4973119;28;94997;-78
2023/03/27 13:59:41;;;;;;;5.20;2.00;;;;;;;;;;5004859;28;92426;-79
2023/03/27 14:02:15;;;;;;;6.28;1.92;;;;;;;;;;4996163;28;96847;-78
2023/03/27 14:05:03;;;;;;;5.10;2.00;;;;;;;;;;4957645;28;92756;-77
2023/03/27 14:07:55;;;;;;;4.95;2.20;;;;;;;;;;4970033;28;95194;-79
2023/03/27 14:10:25;;;;;;;6.43;2.05;;;;;;;;;;4973380;28;97056;-78
2023/03/27 14:12:59;;;;;;;5.50;1.88;;;;;;;;;;4961684;28;94036;-78
2023/03/27 14:15:50;;;;;;;5.43;2.00;;;;;;;;;;4956642;28;93263;-77
2023/03/27 14:18:39;;;;;;;5.53;1.90;;;;;;;;;;4972522;28;99765;-78
2023/03/27 14:21:08;;;;;;;3.78;1.70;;;;;;;;;;4995232;28;92102;-78
2023/03/27 14:23:54;;;;;;;4.65;1.80;;;;;;;;;;4976218;28;94161;-80
2023/03/27 14:26:32;;;;;;;5.50;2.00;;;;;;;;;;4988076;28;93409;-79
2023/03/27 14:29:00;;;;;;;4.20;1.70;;;;;;;;;;4972406;28;94747;-78
2023/03/27 14:31:37;;;;;;;6.00;2.17;;;;;;;;;;4963930;28;95205;-78
2023/03/27 14:34:14;;;;;;;5.53;1.85;;;;;;;;;;4956028;28;93620;-78
2023/03/27 14:36:48;;;;;;;5.57;1.60;;;;;;;;;;4988453;28;92494;-78
2023/03/27 14:39:22;;;;;;;;;;;;;;;;;;5000364;28;95291;-79
2023/03/27 14:41:58;;;;;;;5.35;1.70;;;;;;;;;;4978099;28;92434;-78
2023/03/27 14:44:28;;;;;;;5.43;1.85;;;;;;;;;;4971387;28;92544;-79
2023/03/27 14:47:02;;;;;;;4.93;1.77;;;;;;;;;;4977136;28;94955;-79
2023/03/27 14:49:36;;;;;;;4.85;2.15;;;;;;;;;;4980180;28;94576;-79
2023/03/27 14:52:06;;;;;;;4.80;1.70;;;;;;;;;;4971040;28;95496;-78
2023/03/27 14:54:56;;;;;;;5.43;1.60;;;;;;;;;;4960073;28;95649;-78
2023/03/27 14:57:29;;;;;;;4.53;1.38;;;;;;;;;;4984349;28;97170;-78
2023/03/27 14:59:58;;;;;;;4.25;1.55;;;;;;;;;;4961365;28;94710;-79
2023/03/27 15:02:29;;;;;;;4.40;1.70;;;;;;;;;;4974722;28;92693;-79
2023/03/27 15:05:08;;;;;;;4.50;1.52;;;;;;;;;;4993067;28;94430;-78
2023/03/27 15:07:36;;;;;;;3.45;1.40;;;;;;;;;;4962699;28;92917;-77
2023/03/27 15:10:26;;;;;;;4.25;1.50;;;;;;;;;;4984914;28;94107;-77
2023/03/27 15:13:02;;;;;;;3.70;1.45;;;;;;;;;;4972840;28;92197;-78
2023/03/27 15:15:28;;;;;;;3.13;1.30;;;;;;;;;;4974837;28;92316;-77
2023/03/27 15:17:58;;;;;;;5.75;1.60;;;;;;;;;;4964523;28;94583;-78
2023/03/27 15:20:26;;;;;;;2.65;1.27;;;;;;;;;;4957877;28;103172;-79
2023/03/27 15:23:02;;;;;;;3.30;1.20;;;;;;;;;;4992453;28;93670;-77
2023/03/27 15:25:29;;;;;;;;;;;;;;;;;;4961255;28;92740;-79
2023/03/27 15:27:57;;;;;;;2.95;1.27;;;;;;;;;;4981431;28;112538;-78
2023/03/27 15:30:33;;;;;;;4.07;1.30;;;;;;;;;;4992164;28;92171;-80
2023/03/27 15:33:00;;;;;;;3.47;1.38;;;;;;;;;;4976874;28;93305;-78
2023/03/27 15:35:32;;;;;;;5.35;1.38;;;;;;;;;;4961828;28;92327;-78
2023/03/27 15:37:59;;;;;;;3.40;1.10;;;;;;;;;;4960706;28;93338;-79
2023/03/27 15:40:37;;;;;;;4.22;1.20;;;;;;;;;;4960421;28;93584;-78
2023/03/27 15:43:07;;;;;;;3.25;1.27;;;;;;;;;;4964045;28;93245;-78
2023/03/27 15:45:37;;;;;;;5.25;1.23;;;;;;;;;;4972925;28;94890;-78
2023/03/27 15:48:05;;;;;;;3.05;1.17;;;;;;;;;;4984266;28;92795;-78
2023/03/27 15:50:32;;;;;;;4.03;1.42;;;;;;;;;;4961717;28;92130;-79
2023/03/27 15:53:00;;;;;;;3.42;1.27;;;;;;;;;;4966934;28;92929;-78
2023/03/27 15:55:36;;;;;;;4.35;1.45;;;;;;;;;;4961696;28;94260;-78
2023/03/27 15:58:31;;;;;;;3.53;1.35;;;;;;;;;;4971456;28;92246;-80
2023/03/27 16:00:59;;;;;;;4.20;1.50;;;;;;;;;;4946564;28;93786;-78
2023/03/27 16:03:26;;;;;;;4.68;1.50;;;;;;;;;;4958553;28;91431;-79
2023/03/27 16:05:54;;;;;;;4.57;1.20;;;;;;;;;;4958820;28;92064;-80
2023/03/27 16:08:26;;;;;;;4.45;1.50;;;;;;;;;;4958803;28;92941;-79
2023/03/27 16:10:54;;;;;;;5.47;1.60;;;;;;;;;;4959265;28;94764;-78
2023/03/27 16:13:26;;;;;;;5.25;1.60;;;;;;;;;;4962162;28;94826;-79
2023/03/27 16:15:56;;;;;;;6.05;1.50;;;;;;;;;;4957016;28;95123;-78
2023/03/27 16:18:33;;;;;;;4.53;1.50;;;;;;;;;;4965656;28;92042;-78
2023/03/27 16:21:08;;;;;;;4.85;1.50;;;;;;;;;;4964006;28;93331;-78
2023/03/27 16:23:34;;;;;;;4.65;1.67;;;;;;;;;;4959456;28;92367;-78
2023/03/27 16:26:01;;;;;;;4.95;1.52;;;;;;;;;;4958989;28;92501;-79
2023/03/27 16:28:29;;;;;;;4.13;1.40;;;;;;;;;;4963727;28;92432;-81
2023/03/27 16:30:56;;;;;;;5.50;1.60;;;;;;;;;;4993980;28;92867;-80
2023/03/27 16:33:24;;;;;;;4.95;1.40;;;;;;;;;;4975727;28;92290;-80
2023/03/27 16:35:51;;;;;;;3.95;1.20;;;;;;;;;;4972352;28;98342;-80
2023/03/27 16:38:17;;;;;;;3.70;1.40;;;;;;;;;;4983834;28;92073;-81
2023/03/27 16:40:44;;;;;;;5.78;1.35;;;;;;;;;;4982171;28;93185;-80
2023/03/27 16:43:10;;;;;;;5.40;1.40;;;;;;;;;;4974782;28;92078;-80
2023/03/27 16:45:37;;;;;;;4.50;1.40;;;;;;;;;;4978685;28;92437;-80
2023/03/27 16:48:04;;;;;;;3.42;1.10;;;;;;;;;;4966653;28;92840;-80
2023/03/27 16:50:30;;;;;;;4.53;1.38;;;;;;;;;;5003589;28;92463;-81
2023/03/27 16:52:56;;;;;;;3.80;1.20;;;;;;;;;;4959595;28;92572;-80
2023/03/27 16:55:23;;;;;;;5.55;1.45;;;;;;;;;;4960440;28;93073;-79
2023/03/27 16:57:52;;;;;;;4.07;1.20;;;;;;;;;;4976614;28;94189;-81
2023/03/27 17:00:19;;;;;;;3.47;1.10;;;;;;;;;;4975123;28;95048;-79
2023/03/27 17:02:46;;;;;;;4.18;1.40;;;;;;;;;;4957784;28;92572;-81
2023/03/27 17:05:12;;;;;;;4.93;1.27;;;;;;;;;;4956973;28;92835;-81
2023/03/27 17:07:45;;;;;;;4.43;1.30;;;;;;;;;;4956106;28;92615;-80
2023/03/27 17:10:12;;;;;;;4.85;1.02;;;;;;;;;;4953811;28;92559;-80
2023/03/27 17:12:38;;;;;;;4.22;1.33;;;;;;;;;;4939578;28;92306;-79
2023/03/27 17:15:05;;;;;;;4.15;1.23;;;;;;;;;;4938613;28;92854;-80
2023/03/27 17:17:31;;;;;;;3.47;1.30;;;;;;;;;;4940134;28;92073;-80
2023/03/27 17:19:59;;;;;;;4.65;1.13;;;;;;;;;;4937676;28;92008;-80
2023/03/27 17:22:28;;;;;;;;;;;;;;;;;;4943403;28;92815;-80
2023/03/27 17:24:55;;;;;;;4.65;1.45;;;;;;;;;;4953406;28;104963;-80
2023/03/27 17:27:24;;;;;;;3.63;1.25;;;;;;;;;;4953735;28;94105;-80
2023/03/27 17:29:52;;;;;;;4.63;1.38;;;;;;;;;;4952352;28;92628;-80
2023/03/27 17:32:18;;;;;;;3.63;1.30;;;;;;;;;;4969705;28;94534;-80
2023/03/27 17:34:45;;;;;;;5.25;1.45;;;;;;;;;;4945200;28;93119;-79
2023/03/27 17:37:11;;;;;;;9.50;1.40;;;;;;;;;;4935271;28;92504;-79
2023/03/27 17:39:38;;;;;;;5.63;1.35;;;;;;;;;;4968696;28;92802;-80
2023/03/27 17:42:05;;;;;;;3.45;1.13;;;;;;;;;;4955259;28;93936;-82
2023/03/27 17:44:31;;;;;;;4.70;1.30;;;;;;;;;;4946215;28;92567;-79
2023/03/27 17:46:59;;;;;;;4.43;1.20;;;;;;;;;;4951697;28;92606;-81
2023/03/27 17:49:26;;;;;;;;;;;;;;;;;;4936395;28;94868;-81
2023/03/27 17:51:53;;;;;;;5.03;1.38;;;;;;;;;;4950669;28;113509;-82
2023/03/27 17:54:19;;;;;;;4.57;1.25;;;;;;;;;;4943698;28;95287;-82
2023/03/27 17:56:46;;;;;;;3.60;1.20;;;;;;;;;;4951061;28;92050;-83